Time;durP1;ratioP1;P1;durP2;ratioP2;P2;SDS_P1;SDS_P2;PMS_P1;PMS_P2;Temp;Humidity;BMP_temperature;BMP_pressure;BME280_temperature;BME280_humidity;BME280_pressure;Samples;Min_cycle;Max_cycle;Signal;HPM_P1;HPM_P2
2021/05/01 00:01:04;;;;;;;2.72;1.67;;;-0.10;99.90;;;;;;5066555;28;20203;-67
2021/05/01 00:03:30;;;;;;;1.58;1.38;;;-0.20;99.90;;;;;;5059195;28;20255;-69
2021/05/01 00:05:56;;;;;;;2.70;1.60;;;-0.20;99.90;;;;;;5077993;28;20674;-67
2021/05/01 00:08:23;;;;;;;3.03;1.38;;;-0.30;99.90;;;;;;5076693;28;20663;-68
2021/05/01 00:10:49;;;;;;;1.40;1.30;;;-0.40;99.90;;;;;;5080695;28;20198;-67
2021/05/01 00:13:15;;;;;;;3.45;1.48;;;-0.40;99.90;;;;;;5070541;28;20331;-68
2021/05/01 00:15:40;;;;;;;2.90;1.70;;;-0.40;99.90;;;;;;5072802;28;20204;-67
2021/05/01 00:18:06;;;;;;;1.70;1.50;;;-0.40;99.90;;;;;;5071704;28;20224;-67
2021/05/01 00:20:32;;;;;;;2.15;1.60;;;-0.50;99.90;;;;;;5073061;28;20193;-68
2021/05/01 00:22:58;;;;;;;4.15;1.70;;;-0.40;99.90;;;;;;5059111;28;20192;-68
2021/05/01 00:25:24;;;;;;;2.45;1.50;;;-0.40;99.90;;;;;;5049153;28;20338;-68
2021/05/01 00:27:50;;;;;;;3.88;1.60;;;-0.40;99.90;;;;;;5056596;28;20282;-67
2021/05/01 00:30:16;;;;;;;6.60;1.85;;;-0.30;99.90;;;;;;5074287;28;21097;-68
2021/05/01 00:32:42;;;;;;;2.42;1.50;;;-0.30;99.90;;;;;;5072986;28;20664;-68
2021/05/01 00:35:09;;;;;;;3.60;1.80;;;-0.30;99.90;;;;;;5060703;28;20192;-68
2021/05/01 00:37:35;;;;;;;3.03;1.73;;;-0.30;99.90;;;;;;5073543;28;20229;-69
2021/05/01 00:40:01;;;;;;;2.10;1.42;;;-0.30;99.90;;;;;;5072604;28;20241;-68
2021/05/01 00:42:27;;;;;;;3.20;1.83;;;-0.30;99.90;;;;;;5048780;28;20200;-67
2021/05/01 00:44:52;;;;;;;2.67;1.80;;;-0.30;99.90;;;;;;5061794;28;20304;-67
2021/05/01 00:47:18;;;;;;;3.30;2.03;;;-0.30;99.90;;;;;;5072794;28;20208;-67
2021/05/01 00:49:43;;;;;;;3.40;2.30;;;-0.30;99.90;;;;;;5073680;28;20200;-68
2021/05/01 00:52:09;;;;;;;3.20;2.20;;;-0.30;99.90;;;;;;5072132;28;20630;-68
2021/05/01 00:54:35;;;;;;;6.43;2.40;;;-0.30;99.90;;;;;;5070548;28;20197;-68
2021/05/01 00:57:01;;;;;;;3.92;2.47;;;-0.30;99.90;;;;;;5073921;28;20192;-68
2021/05/01 00:59:27;;;;;;;3.85;2.38;;;-0.30;99.90;;;;;;5062320;28;20196;-69
2021/05/01 01:01:54;;;;;;;7.63;2.65;;;-0.30;99.90;;;;;;5075985;28;20207;-69
2021/05/01 01:04:20;;;;;;;3.58;2.33;;;-0.30;99.90;;;;;;5054451;28;20243;-69
2021/05/01 01:06:47;;;;;;;4.15;2.40;;;-0.30;99.90;;;;;;5073932;28;20205;-69
2021/05/01 01:09:13;;;;;;;3.30;2.00;;;-0.30;99.90;;;;;;5061618;28;20196;-68
2021/05/01 01:11:40;;;;;;;4.22;2.70;;;-0.30;99.90;;;;;;5074992;28;20200;-67
2021/05/01 01:14:08;;;;;;;3.97;2.28;;;-0.30;99.90;;;;;;5082524;28;20359;-66
2021/05/01 01:16:35;;;;;;;3.35;2.30;;;-0.30;99.90;;;;;;5078079;28;20207;-67
2021/05/01 01:19:01;;;;;;;4.20;2.20;;;-0.30;99.90;;;;;;5063272;28;20294;-70
2021/05/01 01:21:27;;;;;;;4.63;2.63;;;-0.30;99.90;;;;;;5075368;28;20663;-70
2021/05/01 01:23:54;;;;;;;7.68;2.15;;;-0.30;99.90;;;;;;5075066;28;20227;-68
2021/05/01 01:26:20;;;;;;;6.60;2.53;;;-0.20;99.90;;;;;;5073730;28;20242;-70
2021/05/01 01:28:47;;;;;;;3.58;2.20;;;-0.20;99.90;;;;;;5063098;28;20192;-68
2021/05/01 01:31:13;;;;;;;4.47;2.08;;;-0.20;99.90;;;;;;5073155;28;20250;-69
2021/05/01 01:33:39;;;;;;;5.97;2.10;;;-0.20;99.90;;;;;;5072776;28;20212;-68
2021/05/01 01:36:06;;;;;;;3.90;2.00;;;-0.20;99.90;;;;;;5055531;28;20196;-67
2021/05/01 01:38:32;;;;;;;4.68;1.70;;;-0.20;99.90;;;;;;5073683;28;20257;-69
2021/05/01 01:40:58;;;;;;;4.60;1.90;;;-0.10;99.90;;;;;;5077229;28;20200;-68
2021/05/01 01:43:25;;;;;;;2.67;1.80;;;0.00;99.90;;;;;;5072683;28;20269;-68
2021/05/01 01:45:52;;;;;;;3.13;1.80;;;0.00;99.90;;;;;;5076004;28;20283;-68
2021/05/01 01:48:18;;;;;;;2.75;1.70;;;0.10;99.90;;;;;;5072708;28;20201;-68
2021/05/01 01:50:44;;;;;;;3.47;1.60;;;0.20;99.90;;;;;;5074225;28;20552;-67
2021/05/01 01:53:10;;;;;;;4.13;1.80;;;0.20;99.90;;;;;;5075612;28;20761;-67
2021/05/01 01:55:36;;;;;;;2.63;1.70;;;0.10;99.90;;;;;;5075605;28;20200;-69
2021/05/01 01:58:02;;;;;;;2.60;1.90;;;0.10;99.90;;;;;;5047916;28;20199;-68
2021/05/01 02:00:29;;;;;;;3.17;1.92;;;0.20;99.90;;;;;;5068363;28;20274;-70
2021/05/01 02:02:55;;;;;;;3.75;2.03;;;0.10;99.90;;;;;;5055681;28;20230;-69
2021/05/01 02:05:22;;;;;;;6.10;1.85;;;0.10;99.90;;;;;;5072792;28;20205;-69
2021/05/01 02:07:47;;;;;;;3.88;1.98;;;0.00;99.90;;;;;;5072262;28;20670;-68
2021/05/01 02:10:14;;;;;;;4.13;1.92;;;0.00;99.90;;;;;;5069617;28;20200;-67
2021/05/01 02:12:40;;;;;;;2.92;1.90;;;0.00;99.90;;;;;;5071959;28;20743;-67
2021/05/01 02:15:10;;;;;;;2.65;1.77;;;0.00;99.90;;;;;;5059946;28;20254;-68
2021/05/01 02:17:39;;;;;;;3.28;2.00;;;0.00;99.90;;;;;;5057472;28;20196;-68
2021/05/01 02:20:06;;;;;;;2.25;1.80;;;-0.10;99.90;;;;;;5069846;28;20223;-67
2021/05/01 02:22:33;;;;;;;3.10;1.80;;;-0.10;99.90;;;;;;5071888;28;20616;-69
2021/05/01 02:24:58;;;;;;;2.05;1.48;;;0.00;99.90;;;;;;5077138;28;20702;-67
2021/05/01 02:27:24;;;;;;;5.57;1.80;;;0.00;99.90;;;;;;5073053;28;20235;-69
2021/05/01 02:29:50;;;;;;;2.65;1.77;;;0.00;99.90;;;;;;5074575;28;20196;-67
2021/05/01 02:32:15;;;;;;;2.55;1.58;;;0.00;99.90;;;;;;5074065;28;20258;-67
2021/05/01 02:34:41;;;;;;;4.47;1.60;;;0.00;99.90;;;;;;5070843;28;20653;-69
2021/05/01 02:37:09;;;;;;;3.63;1.80;;;0.00;99.90;;;;;;5074499;28;20188;-68
2021/05/01 02:39:35;;;;;;;2.22;1.60;;;0.00;99.90;;;;;;5073790;28;20191;-69
2021/05/01 02:42:01;;;;;;;8.05;3.17;;;0.00;99.90;;;;;;5074464;28;20188;-67
2021/05/01 02:44:26;;;;;;;2.58;1.50;;;0.00;99.90;;;;;;5071260;28;20304;-69
2021/05/01 02:46:52;;;;;;;4.65;1.70;;;0.00;99.90;;;;;;5074371;28;20249;-69
2021/05/01 02:49:18;;;;;;;2.65;1.73;;;-0.10;99.90;;;;;;5070918;28;20231;-69
2021/05/01 02:51:43;;;;;;;3.50;1.80;;;0.00;99.90;;;;;;5073620;28;20212;-68
2021/05/01 02:54:09;;;;;;;2.08;1.60;;;0.10;99.90;;;;;;5074837;28;20646;-67
2021/05/01 02:56:35;;;;;;;3.28;1.67;;;0.10;99.90;;;;;;5077538;28;20246;-69
2021/05/01 02:59:00;;;;;;;1.63;1.48;;;0.10;99.90;;;;;;5077663;28;20187;-68
2021/05/01 03:01:26;;;;;;;2.13;1.52;;;0.20;99.90;;;;;;5077427;28;20196;-68
2021/05/01 03:03:52;;;;;;;1.98;1.70;;;0.20;99.90;;;;;;5072269;28;20223;-68
2021/05/01 03:06:17;;;;;;;2.85;1.70;;;0.20;99.90;;;;;;5075842;28;20693;-67
2021/05/01 03:08:43;;;;;;;2.40;1.73;;;0.20;99.90;;;;;;5058005;28;20200;-68
2021/05/01 03:11:09;;;;;;;6.05;1.98;;;0.20;99.90;;;;;;5078473;28;20242;-68
2021/05/01 03:13:35;;;;;;;4.65;1.75;;;0.20;99.90;;;;;;5080757;28;20204;-68
2021/05/01 03:16:01;;;;;;;4.53;2.03;;;0.30;99.90;;;;;;5083853;28;20258;-68
2021/05/01 03:18:26;;;;;;;3.20;1.70;;;0.30;99.90;;;;;;5062352;28;20196;-68
2021/05/01 03:20:52;;;;;;;3.45;2.00;;;0.30;99.90;;;;;;5081153;28;20196;-68
2021/05/01 03:23:19;;;;;;;3.90;1.88;;;0.40;99.90;;;;;;5078755;28;20224;-68
2021/05/01 03:25:45;;;;;;;2.88;1.70;;;0.40;99.90;;;;;;5080894;28;20192;-67
2021/05/01 03:28:10;;;;;;;2.75;1.77;;;0.40;99.90;;;;;;5081338;28;20265;-68
2021/05/01 03:30:36;;;;;;;3.92;1.70;;;0.40;99.90;;;;;;5073800;28;20193;-69
2021/05/01 03:33:02;;;;;;;2.55;1.85;;;0.40;99.90;;;;;;5079124;28;20235;-69
2021/05/01 03:35:28;;;;;;;3.30;1.90;;;0.40;99.90;;;;;;5060925;28;20566;-68
2021/05/01 03:37:53;;;;;;;2.88;1.80;;;0.40;99.90;;;;;;5081928;28;20192;-67
2021/05/01 03:40:21;;;;;;;3.17;1.60;;;0.40;99.90;;;;;;5077999;28;20195;-67
2021/05/01 03:42:47;;;;;;;1.52;1.40;;;0.40;99.90;;;;;;5082935;28;20670;-69
2021/05/01 03:45:14;;;;;;;1.83;1.38;;;0.40;99.90;;;;;;5062775;28;20200;-67
2021/05/01 03:47:39;;;;;;;6.70;1.50;;;0.40;99.90;;;;;;5074497;28;20199;-67
2021/05/01 03:50:07;;;;;;;1.98;1.50;;;0.40;99.90;;;;;;5081602;28;20188;-67
2021/05/01 03:52:34;;;;;;;3.60;1.60;;;0.40;99.90;;;;;;5076573;28;20216;-69
2021/05/01 03:55:00;;;;;;;1.98;1.60;;;0.40;99.90;;;;;;5055317;28;20201;-67
2021/05/01 03:57:26;;;;;;;2.15;1.50;;;0.40;99.90;;;;;;5081007;28;20214;-69
2021/05/01 03:59:51;;;;;;;1.77;1.35;;;0.40;99.90;;;;;;5077908;28;20719;-67
2021/05/01 04:02:18;;;;;;;2.08;1.42;;;0.50;99.90;;;;;;5081617;28;20299;-68
2021/05/01 04:04:43;;;;;;;1.90;1.50;;;0.50;99.90;;;;;;5082065;28;20188;-69
2021/05/01 04:07:10;;;;;;;1.33;1.23;;;0.60;99.90;;;;;;5084688;28;20316;-67
2021/05/01 04:09:35;;;;;;;2.00;1.35;;;0.60;99.90;;;;;;5066702;28;20207;-68
2021/05/01 04:12:01;;;;;;;1.67;1.50;;;0.60;99.90;;;;;;5080902;28;20208;-67
2021/05/01 04:14:27;;;;;;;1.95;1.40;;;0.70;99.90;;;;;;5073418;28;20204;-67
2021/05/01 04:16:52;;;;;;;3.60;1.48;;;0.80;99.90;;;;;;5080640;28;20276;-68
2021/05/01 04:19:18;;;;;;;2.08;1.52;;;0.90;99.90;;;;;;5083675;28;20241;-67
2021/05/01 04:21:44;;;;;;;2.28;1.65;;;1.00;99.90;;;;;;5076068;28;20678;-69
2021/05/01 04:24:10;;;;;;;2.95;1.80;;;1.10;99.90;;;;;;5075775;28;20530;-68
2021/05/01 04:26:35;;;;;;;1.90;1.40;;;1.10;99.90;;;;;;5081386;28;20189;-67
2021/05/01 04:29:01;;;;;;;2.30;1.50;;;1.20;99.90;;;;;;5073926;28;20279;-68
2021/05/01 04:31:27;;;;;;;2.50;1.63;;;1.30;99.90;;;;;;5075513;28;20235;-69
2021/05/01 04:33:53;;;;;;;1.70;1.40;;;1.30;99.90;;;;;;5060887;28;20203;-67
2021/05/01 04:36:19;;;;;;;2.75;1.67;;;1.40;99.90;;;;;;5081326;28;20189;-68
2021/05/01 04:38:44;;;;;;;1.60;1.30;;;1.40;99.90;;;;;;5063181;28;20192;-69
2021/05/01 04:41:11;;;;;;;4.43;1.60;;;1.50;99.90;;;;;;5080714;28;20192;-68
2021/05/01 04:43:38;;;;;;;1.55;1.33;;;1.50;99.90;;;;;;5081705;28;20283;-67
2021/05/01 04:46:04;;;;;;;2.15;1.60;;;1.50;99.90;;;;;;5074767;28;20212;-69
2021/05/01 04:48:30;;;;;;;1.98;1.50;;;1.50;99.90;;;;;;5078569;28;20196;-69
2021/05/01 04:50:56;;;;;;;2.17;1.50;;;1.60;99.90;;;;;;5072582;28;20599;-67
2021/05/01 04:53:23;;;;;;;1.85;1.50;;;1.60;99.90;;;;;;5079924;28;20876;-68
2021/05/01 04:55:48;;;;;;;2.47;1.63;;;1.70;99.90;;;;;;5079023;28;20188;-67
2021/05/01 04:58:14;;;;;;;2.08;1.70;;;1.80;99.90;;;;;;5059998;28;20655;-67
2021/05/01 05:00:41;;;;;;;3.10;1.77;;;1.80;99.90;;;;;;5075861;28;20627;-67
2021/05/01 05:03:08;;;;;;;4.05;1.90;;;1.90;99.90;;;;;;5075825;28;20243;-67
2021/05/01 05:05:33;;;;;;;2.45;1.70;;;2.10;99.90;;;;;;5079812;28;20217;-68
2021/05/01 05:07:59;;;;;;;2.13;1.50;;;2.30;99.90;;;;;;5075504;28;20189;-67
2021/05/01 05:10:25;;;;;;;2.25;1.75;;;2.50;99.90;;;;;;5065984;28;20246;-68
2021/05/01 05:12:50;;;;;;;2.88;1.45;;;2.70;99.90;;;;;;5056767;28;20303;-67
2021/05/01 05:15:16;;;;;;;2.83;1.67;;;2.90;99.90;;;;;;5079442;28;20563;-67
2021/05/01 05:17:42;;;;;;;2.53;1.40;;;3.10;99.90;;;;;;5079187;28;20227;-67
2021/05/01 05:20:09;;;;;;;1.52;1.10;;;3.40;99.90;;;;;;5074344;28;20212;-68
2021/05/01 05:22:35;;;;;;;1.40;1.30;;;3.50;99.90;;;;;;5080362;28;20283;-67
2021/05/01 05:25:00;;;;;;;1.40;1.30;;;3.70;99.90;;;;;;5076623;28;20204;-68
2021/05/01 05:27:26;;;;;;;1.88;1.48;;;3.80;99.90;;;;;;5077882;28;20204;-68
2021/05/01 05:29:53;;;;;;;2.10;1.40;;;3.90;99.90;;;;;;5076027;28;20293;-68
2021/05/01 05:32:19;;;;;;;2.50;1.40;;;4.10;99.90;;;;;;5078063;28;20192;-67
2021/05/01 05:34:45;;;;;;;2.55;1.27;;;4.20;99.90;;;;;;5057858;28;20208;-66
2021/05/01 05:37:11;;;;;;;1.85;1.33;;;4.30;99.90;;;;;;5075400;28;20531;-67
2021/05/01 05:39:42;;;;;;;2.20;1.40;;;4.40;99.90;;;;;;5073318;28;20483;-68
2021/05/01 05:42:09;;;;;;;1.73;1.45;;;4.60;99.90;;;;;;5076399;28;20200;-68
2021/05/01 05:44:35;;;;;;;2.25;1.30;;;4.60;99.90;;;;;;5073967;28;20241;-67
2021/05/01 05:47:01;;;;;;;1.40;1.30;;;4.70;99.90;;;;;;5070726;28;20188;-67
2021/05/01 05:49:26;;;;;;;1.70;1.48;;;4.80;99.90;;;;;;5071901;28;20214;-70
2021/05/01 05:51:52;;;;;;;1.75;1.10;;;5.00;99.90;;;;;;5077228;28;20203;-68
2021/05/01 05:54:18;;;;;;;1.30;1.20;;;5.00;99.90;;;;;;5076398;28;20261;-67
2021/05/01 05:56:44;;;;;;;6.07;2.75;;;5.10;99.90;;;;;;5083774;28;20253;-67
2021/05/01 05:59:10;;;;;;;3.15;2.08;;;5.20;99.90;;;;;;5073631;28;20188;-67
2021/05/01 06:01:40;;;;;;;3.45;2.55;;;5.30;99.90;;;;;;5073482;28;20240;-67
2021/05/01 06:04:15;;;;;;;1.90;1.27;;;5.30;99.90;;;;;;5074025;28;20222;-69
2021/05/01 06:06:52;;;;;;;1.30;1.20;;;5.40;99.90;;;;;;5074899;28;20674;-67
2021/05/01 06:09:18;;;;;;;1.90;1.40;;;5.50;99.90;;;;;;5077787;28;20262;-70
2021/05/01 06:11:44;;;;;;;1.60;1.20;;;5.60;99.90;;;;;;5074840;28;20207;-68
2021/05/01 06:14:14;;;;;;;1.55;1.20;;;5.60;99.90;;;;;;5078123;28;20200;-70
2021/05/01 06:16:40;;;;;;;3.63;1.48;;;5.80;99.90;;;;;;5076851;28;20720;-68
2021/05/01 06:19:10;;;;;;;2.38;1.40;;;6.00;99.90;;;;;;5075387;28;20279;-68
2021/05/01 06:21:35;;;;;;;2.20;1.40;;;6.10;99.90;;;;;;5075509;28;20645;-67
2021/05/01 06:24:01;;;;;;;1.52;1.30;;;6.10;99.90;;;;;;5076042;28;20196;-68
2021/05/01 06:26:27;;;;;;;1.55;1.35;;;6.40;99.90;;;;;;5082709;28;20730;-70
2021/05/01 06:28:53;;;;;;;1.40;1.30;;;6.60;99.90;;;;;;5060480;28;20207;-67
2021/05/01 06:31:20;;;;;;;1.33;1.20;;;6.70;99.90;;;;;;5062879;28;20716;-68
2021/05/01 06:33:46;;;;;;;1.75;1.40;;;6.90;99.90;;;;;;5076640;28;20694;-69
2021/05/01 06:36:12;;;;;;;1.40;1.30;;;7.20;99.90;;;;;;5060555;28;20196;-67
2021/05/01 06:38:39;;;;;;;2.10;1.50;;;7.40;99.90;;;;;;5073965;28;20285;-68
2021/05/01 06:41:08;;;;;;;2.08;1.30;;;7.60;98.70;;;;;;5073393;28;20618;-67
2021/05/01 06:44:01;;;;;;;2.17;1.35;;;7.50;98.20;;;;;;5077283;28;20274;-68
2021/05/01 06:46:29;;;;;;;3.08;1.30;;;7.70;97.20;;;;;;5076124;28;20788;-70
2021/05/01 06:48:57;;;;;;;2.38;1.20;;;7.80;97.10;;;;;;5073168;28;20197;-67
2021/05/01 06:51:23;;;;;;;1.80;1.15;;;8.00;96.00;;;;;;5078817;28;20596;-68
2021/05/01 06:53:49;;;;;;;1.20;1.10;;;8.10;95.30;;;;;;5077087;28;20677;-68
2021/05/01 06:56:16;;;;;;;3.80;1.33;;;8.20;96.00;;;;;;5077254;28;20240;-70
2021/05/01 06:58:43;;;;;;;1.20;1.10;;;8.40;95.50;;;;;;5076120;28;20310;-67
2021/05/01 07:01:11;;;;;;;1.65;1.42;;;8.60;94.70;;;;;;5074882;28;20188;-69
2021/05/01 07:03:47;;;;;;;1.48;1.30;;;8.90;93.70;;;;;;5076407;28;20619;-68
2021/05/01 07:06:17;;;;;;;2.20;1.40;;;9.10;92.90;;;;;;5073184;28;20203;-68
2021/05/01 07:08:43;;;;;;;1.52;1.20;;;9.30;92.40;;;;;;5076257;28;20201;-69
2021/05/01 07:11:11;;;;;;;1.50;1.30;;;9.60;91.50;;;;;;5056624;28;20199;-67
2021/05/01 07:13:38;;;;;;;1.25;1.10;;;9.90;92.00;;;;;;5073368;28;20220;-69
2021/05/01 07:16:06;;;;;;;2.05;1.20;;;10.00;90.10;;;;;;5072530;28;20566;-68
2021/05/01 07:18:32;;;;;;;2.08;1.17;;;10.00;89.80;;;;;;5059612;28;20649;-69
2021/05/01 07:20:59;;;;;;;1.65;1.20;;;9.80;87.80;;;;;;5076955;28;20196;-68
2021/05/01 07:23:26;;;;;;;3.22;1.20;;;9.10;85.50;;;;;;5076418;28;20197;-69
2021/05/01 07:25:52;;;;;;;1.70;1.20;;;8.90;89.10;;;;;;5078200;28;20267;-69
2021/05/01 07:28:24;;;;;;;3.08;1.02;;;8.90;89.80;;;;;;5073387;28;20193;-68
2021/05/01 07:30:54;;;;;;;1.30;1.20;;;9.10;89.60;;;;;;5071243;28;20554;-67
2021/05/01 07:33:55;;;;;;;2.03;1.10;;;9.30;90.00;;;;;;5073016;28;20613;-68
2021/05/01 07:36:39;;;;;;;1.50;1.30;;;9.40;90.40;;;;;;5073067;28;20572;-67
2021/05/01 07:39:09;;;;;;;2.47;1.20;;;9.40;88.10;;;;;;5068669;28;20617;-67
2021/05/01 07:41:35;;;;;;;1.45;1.10;;;9.30;87.30;;;;;;5075257;28;20200;-68
2021/05/01 07:44:02;;;;;;;1.88;1.10;;;9.20;90.00;;;;;;5049633;28;20204;-67
2021/05/01 07:46:31;;;;;;;2.42;1.20;;;9.70;90.90;;;;;;5065212;28;20188;-68
2021/05/01 07:48:57;;;;;;;1.92;1.10;;;10.10;88.50;;;;;;5066941;28;20219;-66
2021/05/01 07:51:23;;;;;;;1.25;1.15;;;10.60;87.70;;;;;;5074174;28;20197;-65
2021/05/01 07:53:49;;;;;;;1.20;1.10;;;11.20;86.50;;;;;;5073175;28;20219;-69
2021/05/01 07:56:15;;;;;;;2.38;1.10;;;11.90;79.30;;;;;;5063061;28;20666;-67
2021/05/01 07:58:41;;;;;;;1.10;1.00;;;12.00;80.80;;;;;;5070466;28;20223;-67
2021/05/01 08:01:06;;;;;;;1.10;1.00;;;12.30;79.10;;;;;;5073095;28;20678;-69
2021/05/01 08:03:32;;;;;;;0.93;0.90;;;12.50;76.20;;;;;;5072037;28;20770;-68
2021/05/01 08:05:58;;;;;;;0.93;0.93;;;12.30;74.70;;;;;;5071420;28;20735;-68
2021/05/01 08:08:24;;;;;;;1.83;1.00;;;12.00;74.00;;;;;;5070148;28;20199;-67
2021/05/01 08:10:50;;;;;;;1.17;0.98;;;11.50;76.10;;;;;;5058766;28;20222;-68
2021/05/01 08:13:15;;;;;;;1.27;0.98;;;11.00;72.70;;;;;;5075063;28;20196;-68
2021/05/01 08:15:41;;;;;;;1.10;1.00;;;10.70;74.90;;;;;;5074137;28;20200;-69
2021/05/01 08:18:07;;;;;;;1.25;1.15;;;10.40;74.60;;;;;;5072533;28;20192;-67
2021/05/01 08:20:34;;;;;;;1.40;0.90;;;10.10;77.40;;;;;;5071500;28;20311;-68
2021/05/01 08:23:00;;;;;;;3.22;0.93;;;10.00;79.60;;;;;;5057636;28;20279;-68
2021/05/01 08:25:26;;;;;;;1.05;0.95;;;10.00;77.90;;;;;;5072593;28;20587;-66
2021/05/01 08:27:53;;;;;;;1.13;1.02;;;10.00;77.50;;;;;;5069311;28;20210;-67
2021/05/01 08:30:19;;;;;;;1.20;1.10;;;9.90;77.40;;;;;;5056329;28;20196;-68
2021/05/01 08:32:45;;;;;;;0.90;0.90;;;9.90;77.40;;;;;;5056233;28;20204;-67
2021/05/01 08:35:12;;;;;;;1.88;1.05;;;9.70;78.00;;;;;;5055944;28;20607;-67
2021/05/01 08:37:39;;;;;;;1.67;1.00;;;9.80;78.70;;;;;;5075496;28;20192;-67
2021/05/01 08:40:07;;;;;;;1.98;1.10;;;10.20;78.20;;;;;;5075227;28;20192;-67
2021/05/01 08:42:33;;;;;;;1.25;1.00;;;11.00;75.20;;;;;;5072358;28;20600;-68
2021/05/01 08:45:05;;;;;;;1.15;1.05;;;11.60;76.50;;;;;;5073696;28;20279;-68
2021/05/01 08:47:34;;;;;;;0.90;0.90;;;11.80;73.60;;;;;;5078327;28;20200;-67
2021/05/01 08:50:04;;;;;;;1.00;0.90;;;11.80;70.10;;;;;;5055614;28;20234;-68
2021/05/01 08:52:31;;;;;;;1.00;1.00;;;11.60;70.30;;;;;;5070007;28;20200;-67
2021/05/01 08:54:59;;;;;;;2.97;1.00;;;11.70;75.10;;;;;;5081696;28;20192;-69
2021/05/01 08:57:30;;;;;;;0.93;0.80;;;11.90;71.30;;;;;;5057089;28;20196;-67
2021/05/01 08:59:56;;;;;;;1.13;0.90;;;12.20;70.80;;;;;;5072861;28;20280;-68
2021/05/01 09:02:26;;;;;;;0.90;0.90;;;12.50;69.10;;;;;;5071925;28;20414;-67
2021/05/01 09:04:53;;;;;;;3.70;0.82;;;13.10;69.30;;;;;;5059264;28;20298;-67
2021/05/01 09:07:20;;;;;;;1.98;1.20;;;13.80;67.10;;;;;;5078908;28;20785;-69
2021/05/01 09:09:57;;;;;;;1.63;0.90;;;14.20;66.30;;;;;;5077881;28;20363;-68
2021/05/01 09:12:43;;;;;;;5.00;1.30;;;14.50;65.50;;;;;;5056993;28;20269;-67
2021/05/01 09:15:33;;;;;;;1.10;1.00;;;14.00;65.20;;;;;;5075084;28;20188;-68
2021/05/01 09:18:02;;;;;;;1.80;1.05;;;13.60;63.30;;;;;;5076566;28;20555;-68
2021/05/01 09:20:29;;;;;;;2.72;0.98;;;13.70;65.20;;;;;;5073082;28;20208;-69
2021/05/01 09:23:05;;;;;;;2.47;1.00;;;14.10;66.70;;;;;;5072506;28;20206;-68
2021/05/01 09:25:45;;;;;;;0.95;0.88;;;14.30;64.10;;;;;;5070767;28;20204;-67
2021/05/01 09:28:14;;;;;;;0.85;0.80;;;14.60;59.90;;;;;;5075211;28;20286;-69
2021/05/01 09:30:42;;;;;;;2.72;1.00;;;13.90;59.10;;;;;;5068675;28;20651;-68
2021/05/01 09:33:33;;;;;;;1.00;0.80;;;13.90;64.10;;;;;;5073251;28;20208;-69
2021/05/01 09:36:06;;;;;;;0.95;0.80;;;14.50;64.30;;;;;;5069009;28;20192;-69
2021/05/01 09:38:47;;;;;;;1.50;0.98;;;15.00;61.60;;;;;;5077078;28;20589;-70
2021/05/01 09:41:19;;;;;;;1.00;0.90;;;15.70;62.90;;;;;;5079605;28;20189;-67
2021/05/01 09:44:02;;;;;;;1.58;0.90;;;16.10;58.10;;;;;;5071196;28;20201;-68
2021/05/01 09:46:28;;;;;;;2.05;0.93;;;16.20;60.70;;;;;;5073830;28;20253;-69
2021/05/01 09:49:13;;;;;;;3.30;1.50;;;16.60;56.00;;;;;;5076269;28;20208;-68
2021/05/01 09:51:44;;;;;;;1.00;0.70;;;16.40;55.40;;;;;;5052146;28;20208;-67
2021/05/01 09:54:11;;;;;;;1.20;0.77;;;16.50;57.00;;;;;;5076670;28;20188;-68
2021/05/01 09:56:42;;;;;;;2.45;0.65;;;16.70;57.30;;;;;;5079354;28;20218;-68
2021/05/01 09:59:09;;;;;;;0.75;0.70;;;16.80;55.80;;;;;;5073082;28;21313;-68
2021/05/01 10:01:35;;;;;;;4.95;0.75;;;16.50;54.00;;;;;;5079122;28;20288;-67
2021/05/01 10:04:16;;;;;;;0.77;0.77;;;16.00;53.60;;;;;;5071872;28;20747;-68
2021/05/01 10:06:52;;;;;;;3.97;0.80;;;15.50;54.80;;;;;;5072346;28;20214;-68
2021/05/01 10:09:31;;;;;;;3.63;0.68;;;15.60;53.70;;;;;;5072983;28;20197;-73
2021/05/01 10:12:14;;;;;;;2.17;0.95;;;15.50;56.70;;;;;;5052578;28;20208;-71
2021/05/01 10:14:46;;;;;;;3.35;0.80;;;15.80;54.60;;;;;;5080598;28;20201;-68
2021/05/01 10:17:15;;;;;;;3.15;0.77;;;16.40;53.10;;;;;;5075235;28;20184;-71
2021/05/01 10:19:59;;;;;;;2.35;0.80;;;16.70;54.20;;;;;;5077890;28;20976;-68
2021/05/01 10:22:28;;;;;;;2.33;0.77;;;16.40;52.30;;;;;;5076033;28;20188;-66
2021/05/01 10:24:55;;;;;;;1.85;0.90;;;16.30;53.20;;;;;;5076088;28;20208;-71
2021/05/01 10:27:21;;;;;;;2.10;0.73;;;15.90;55.40;;;;;;5077374;28;20250;-66
2021/05/01 10:30:07;;;;;;;1.30;0.63;;;15.60;54.20;;;;;;5071366;28;20197;-66
2021/05/01 10:32:42;;;;;;;1.50;0.70;;;15.70;54.60;;;;;;5076319;28;20395;-69
2021/05/01 10:35:09;;;;;;;1.60;0.98;;;15.90;53.90;;;;;;5072303;28;20206;-68
2021/05/01 10:37:40;;;;;;;2.90;1.10;;;16.00;53.30;;;;;;5075144;28;20797;-68
2021/05/01 10:40:06;;;;;;;1.27;0.73;;;16.20;53.60;;;;;;5075300;28;20642;-66
2021/05/01 10:42:32;;;;;;;3.70;0.85;;;16.90;54.90;;;;;;5076662;28;20216;-67
2021/05/01 10:45:00;;;;;;;0.90;0.80;;;17.40;52.30;;;;;;5072498;28;20689;-69
2021/05/01 10:47:26;;;;;;;0.77;0.57;;;16.90;51.20;;;;;;5075132;28;20197;-66
2021/05/01 10:49:55;;;;;;;1.60;1.00;;;16.30;52.70;;;;;;5076582;28;20257;-67
2021/05/01 10:52:22;;;;;;;1.50;0.70;;;16.50;54.00;;;;;;5077058;28;20215;-69
2021/05/01 10:55:04;;;;;;;2.00;0.80;;;16.50;54.00;;;;;;5055480;28;20204;-69
2021/05/01 10:57:32;;;;;;;2.53;0.70;;;17.30;57.60;;;;;;5076568;28;20188;-69
2021/05/01 11:00:11;;;;;;;2.83;0.95;;;17.80;56.30;;;;;;5071710;28;20197;-69
2021/05/01 11:02:41;;;;;;;1.77;0.80;;;18.80;54.80;;;;;;5073328;28;20300;-66
2021/05/01 11:05:12;;;;;;;3.75;1.02;;;19.00;52.70;;;;;;5072771;28;20196;-69
2021/05/01 11:07:44;;;;;;;3.00;0.80;;;18.60;52.60;;;;;;5075818;28;20270;-68
2021/05/01 11:10:11;;;;;;;3.22;0.98;;;18.50;51.80;;;;;;5075732;28;20188;-70
2021/05/01 11:12:39;;;;;;;1.60;0.98;;;17.90;51.10;;;;;;5074904;28;20763;-67
2021/05/01 11:15:12;;;;;;;2.30;0.90;;;17.00;53.30;;;;;;5079022;28;20191;-66
2021/05/01 11:17:46;;;;;;;4.03;0.73;;;16.70;51.90;;;;;;5056967;28;20691;-68
2021/05/01 11:20:16;;;;;;;0.90;0.65;;;15.80;54.60;;;;;;5074897;28;20200;-68
2021/05/01 11:22:44;;;;;;;3.92;1.63;;;15.10;57.60;;;;;;5071114;28;20196;-69
2021/05/01 11:25:12;;;;;;;1.67;0.90;;;15.30;58.60;;;;;;5055754;28;20271;-66
2021/05/01 11:27:39;;;;;;;1.80;0.98;;;15.60;56.00;;;;;;5074248;28;20266;-66
2021/05/01 11:30:07;;;;;;;1.48;0.98;;;16.20;59.70;;;;;;5077201;28;20196;-66
2021/05/01 11:32:34;;;;;;;3.55;0.93;;;16.80;58.50;;;;;;5061231;28;20208;-67
2021/05/01 11:35:07;;;;;;;3.53;0.80;;;16.70;54.20;;;;;;5075400;28;20727;-66
2021/05/01 11:37:43;;;;;;;0.80;0.70;;;15.90;54.70;;;;;;5082910;28;20826;-68
2021/05/01 11:40:11;;;;;;;0.82;0.70;;;15.20;56.80;;;;;;5081048;28;20283;-67
2021/05/01 11:42:39;;;;;;;0.80;0.70;;;14.90;55.40;;;;;;5071867;28;20193;-69
2021/05/01 11:45:24;;;;;;;1.80;0.90;;;14.60;59.40;;;;;;5080846;28;20192;-68
2021/05/01 11:47:53;;;;;;;0.85;0.73;;;14.90;57.30;;;;;;5062441;28;20543;-67
2021/05/01 11:50:20;;;;;;;4.10;0.85;;;15.20;59.70;;;;;;5080062;28;20211;-67
2021/05/01 11:53:04;;;;;;;2.20;0.95;;;15.10;57.90;;;;;;5061437;28;20553;-68
2021/05/01 11:55:42;;;;;;;4.28;0.95;;;15.30;56.90;;;;;;5073017;28;20275;-69
2021/05/01 11:58:11;;;;;;;1.42;0.70;;;15.60;57.70;;;;;;5070159;28;20756;-68
2021/05/01 12:00:39;;;;;;;0.98;0.80;;;15.60;57.50;;;;;;5076788;28;20220;-69
2021/05/01 12:03:26;;;;;;;1.75;0.75;;;15.70;57.90;;;;;;5076884;28;20275;-67
2021/05/01 12:06:00;;;;;;;5.63;1.00;;;15.80;55.20;;;;;;5076785;28;20216;-67
2021/05/01 12:08:27;;;;;;;2.45;0.90;;;15.30;54.40;;;;;;5074077;28;20959;-68
2021/05/01 12:10:56;;;;;;;1.30;0.90;;;14.80;55.40;;;;;;5074884;28;20203;-68
2021/05/01 12:13:35;;;;;;;2.58;1.35;;;14.70;58.60;;;;;;5058609;28;20216;-67
2021/05/01 12:16:02;;;;;;;2.35;0.90;;;15.00;58.20;;;;;;5055055;28;20298;-67
2021/05/01 12:18:56;;;;;;;2.67;0.90;;;15.40;56.90;;;;;;5073608;28;20196;-71
2021/05/01 12:21:29;;;;;;;1.23;0.88;;;15.70;55.80;;;;;;5072169;28;20196;-69
2021/05/01 12:23:58;;;;;;;4.93;0.90;;;15.70;56.80;;;;;;5070705;28;20196;-68
2021/05/01 12:26:33;;;;;;;1.05;0.80;;;15.90;55.60;;;;;;5077336;28;20592;-67
2021/05/01 12:29:33;;;;;;;3.42;1.08;;;15.60;55.20;;;;;;5079925;28;20196;-71
2021/05/01 12:32:05;;;;;;;1.95;1.02;;;15.80;57.30;;;;;;5028877;28;20223;-68
2021/05/01 12:35:01;;;;;;;2.08;1.00;;;16.00;56.60;;;;;;5059982;28;20202;-69
2021/05/01 12:37:28;;;;;;;1.85;0.70;;;16.20;56.20;;;;;;5046276;28;20208;-68
2021/05/01 12:40:01;;;;;;;2.30;1.02;;;16.20;57.60;;;;;;5051952;28;20201;-67
2021/05/01 12:42:28;;;;;;;1.38;0.90;;;16.30;55.30;;;;;;5070972;28;20324;-69
2021/05/01 12:44:54;;;;;;;1.45;0.88;;;15.80;57.30;;;;;;5062312;28;20814;-68
2021/05/01 12:47:35;;;;;;;7.35;1.10;;;15.40;54.10;;;;;;5058197;28;20207;-70
2021/05/01 12:50:19;;;;;;;1.13;0.90;;;15.40;57.70;;;;;;5070136;28;20208;-69
2021/05/01 12:52:46;;;;;;;1.80;0.75;;;15.50;57.90;;;;;;5073890;28;20212;-68
2021/05/01 12:55:14;;;;;;;2.75;0.85;;;15.80;59.00;;;;;;5076748;28;20219;-70
2021/05/01 12:57:40;;;;;;;6.75;1.00;;;16.40;57.70;;;;;;5059547;28;20192;-71